createdAt,value
2022-11-29T00:01:26.537Z,17.92
2022-11-29T00:03:54.691Z,17.91
2022-11-29T00:06:27.520Z,17.90
2022-11-29T00:08:57.497Z,17.90
2022-11-29T00:11:46.366Z,17.89
2022-11-29T00:14:18.457Z,17.89
2022-11-29T00:16:50.837Z,17.88
2022-11-29T00:19:18.731Z,17.87
2022-11-29T00:21:46.063Z,17.88
2022-11-29T00:24:13.630Z,17.86
2022-11-29T00:26:41.787Z,17.87
2022-11-29T00:29:11.718Z,17.85
2022-11-29T00:31:39.580Z,17.85
2022-11-29T00:34:07.712Z,17.86
2022-11-29T00:36:35.790Z,17.84
2022-11-29T00:39:05.065Z,17.85
2022-11-29T00:41:32.919Z,17.84
2022-11-29T00:44:00.535Z,17.83
2022-11-29T00:46:27.911Z,17.83
2022-11-29T00:48:55.324Z,17.83
2022-11-29T00:51:22.676Z,17.82
2022-11-29T00:53:50.044Z,17.82
2022-11-29T00:56:17.368Z,17.82
2022-11-29T00:58:44.624Z,17.81
2022-11-29T01:01:12.196Z,17.81
2022-11-29T01:03:39.781Z,17.81
2022-11-29T01:06:15.270Z,17.79
2022-11-29T01:08:43.095Z,17.80
2022-11-29T01:11:16.497Z,17.79
2022-11-29T01:13:44.135Z,17.81
2022-11-29T01:16:12.022Z,17.79
2022-11-29T01:18:39.755Z,17.78
2022-11-29T01:21:09.540Z,17.78
2022-11-29T01:23:37.824Z,17.77
2022-11-29T01:26:17.820Z,17.77
2022-11-29T01:28:48.517Z,17.77
2022-11-29T01:31:19.136Z,17.77
2022-11-29T01:33:46.572Z,17.76
2022-11-29T01:36:14.735Z,17.76
2022-11-29T01:38:44.913Z,17.76
2022-11-29T01:41:21.395Z,17.75
2022-11-29T01:44:11.868Z,17.76
2022-11-29T01:46:47.186Z,17.75
2022-11-29T01:49:32.410Z,17.74
2022-11-29T01:52:05.350Z,17.73
2022-11-29T01:54:36.306Z,17.74
2022-11-29T01:57:07.264Z,17.73
2022-11-29T01:59:39.059Z,17.72
2022-11-29T02:02:13.141Z,17.73
2022-11-29T02:04:43.657Z,17.71
2022-11-29T02:07:11.313Z,17.72
2022-11-29T02:09:38.872Z,17.71
2022-11-29T02:12:53.674Z,17.70
2022-11-29T02:15:41.794Z,17.71
2022-11-29T02:18:27.489Z,17.70
2022-11-29T02:21:06.711Z,17.70
2022-11-29T02:24:12.321Z,17.69
2022-11-29T02:27:12.052Z,17.70
2022-11-29T02:29:41.997Z,17.70
2022-11-29T02:32:45.943Z,17.68
2022-11-29T02:35:31.708Z,17.69
2022-11-29T02:38:37.687Z,17.68
2022-11-29T02:41:15.570Z,17.68
2022-11-29T02:43:57.948Z,17.67
2022-11-29T02:46:37.269Z,17.68
2022-11-29T02:49:07.179Z,17.67
2022-11-29T02:52:00.370Z,17.66
2022-11-29T02:54:48.666Z,17.66
2022-11-29T02:57:33.346Z,17.67
2022-11-29T03:00:20.079Z,17.67
2022-11-29T03:03:08.742Z,17.66
2022-11-29T03:05:44.811Z,17.66
2022-11-29T03:08:37.701Z,17.65
2022-11-29T03:11:11.203Z,17.65
2022-11-29T03:14:04.906Z,17.64
2022-11-29T03:16:42.778Z,17.64
2022-11-29T03:19:40.961Z,17.65
2022-11-29T03:22:32.975Z,17.63
2022-11-29T03:25:28.405Z,17.63
2022-11-29T03:28:17.729Z,17.63
2022-11-29T03:30:54.121Z,17.63
2022-11-29T03:33:52.550Z,17.62
2022-11-29T03:37:03.999Z,17.63
2022-11-29T03:39:45.253Z,17.63
2022-11-29T03:42:54.523Z,17.62
2022-11-29T03:45:28.539Z,17.61
2022-11-29T03:48:29.555Z,17.62
2022-11-29T03:51:01.871Z,17.60
2022-11-29T03:53:37.063Z,17.61
2022-11-29T03:56:30.205Z,17.61
2022-11-29T03:59:20.787Z,17.60
2022-11-29T04:02:21.252Z,17.61
2022-11-29T04:05:19.192Z,17.59
2022-11-29T04:07:46.559Z,17.60
2022-11-29T04:10:51.335Z,17.59
2022-11-29T04:13:46.220Z,17.60
2022-11-29T04:16:44.071Z,17.58
2022-11-29T04:19:20.203Z,17.59
2022-11-29T04:22:12.905Z,17.58
2022-11-29T04:25:01.908Z,17.58
2022-11-29T04:27:35.421Z,17.57
2022-11-29T04:30:23.612Z,17.56
2022-11-29T04:33:25.275Z,17.56
2022-11-29T04:36:05.400Z,17.57
2022-11-29T04:39:14.427Z,17.57
2022-11-29T04:41:59.825Z,17.55
2022-11-29T04:44:36.024Z,17.56
2022-11-29T04:47:37.515Z,17.55
2022-11-29T04:50:20.796Z,17.55
2022-11-29T04:53:09.410Z,17.56
2022-11-29T04:55:59.150Z,17.55
2022-11-29T04:58:38.341Z,17.55
2022-11-29T05:01:40.886Z,17.55
2022-11-29T05:04:19.117Z,17.55
2022-11-29T05:06:49.093Z,17.54
2022-11-29T05:09:30.782Z,17.54
2022-11-29T05:12:08.989Z,17.54
2022-11-29T05:14:55.351Z,17.54
2022-11-29T05:17:38.320Z,17.53
2022-11-29T05:20:32.672Z,17.54
2022-11-29T05:23:17.945Z,17.54
2022-11-29T05:26:01.452Z,17.52
2022-11-29T05:28:47.145Z,17.53
2022-11-29T05:31:20.644Z,17.52
2022-11-29T05:33:53.797Z,17.53
2022-11-29T05:36:20.864Z,17.52
2022-11-29T05:38:56.807Z,17.52
2022-11-29T05:41:30.053Z,17.51
2022-11-29T05:44:00.127Z,17.50
2022-11-29T05:46:30.465Z,17.51
2022-11-29T05:49:36.091Z,17.50
2022-11-29T05:52:24.608Z,17.50
2022-11-29T05:55:19.444Z,17.50
2022-11-29T05:58:01.955Z,17.51
2022-11-29T06:00:43.245Z,17.50
2022-11-29T06:03:26.656Z,17.50
2022-11-29T06:05:57.095Z,17.49
2022-11-29T06:08:35.738Z,17.48
2022-11-29T06:11:15.990Z,17.48
2022-11-29T06:14:09.233Z,17.48
2022-11-29T06:16:56.941Z,17.48
2022-11-29T06:19:53.288Z,17.48
2022-11-29T06:22:57.687Z,17.48
2022-11-29T06:26:29.227Z,17.48
2022-11-29T06:29:14.491Z,17.46
2022-11-29T06:31:46.486Z,17.47
2022-11-29T06:34:27.563Z,17.46
2022-11-29T06:37:12.976Z,17.45
2022-11-29T06:39:41.841Z,17.47
2022-11-29T06:42:09.021Z,17.46
2022-11-29T06:44:36.520Z,17.45
2022-11-29T06:47:17.167Z,17.46
2022-11-29T06:49:58.462Z,17.46
2022-11-29T06:52:36.168Z,17.46
2022-11-29T06:55:38.600Z,17.44
2022-11-29T06:58:36.277Z,17.46
2022-11-29T07:01:24.965Z,17.45
2022-11-29T07:03:55.345Z,17.45
2022-11-29T07:06:27.181Z,17.45
2022-11-29T07:09:01.456Z,17.44
2022-11-29T07:11:29.072Z,17.44
2022-11-29T07:13:56.646Z,17.43
2022-11-29T07:16:31.747Z,17.44
2022-11-29T07:19:22.275Z,17.43
2022-11-29T07:21:58.971Z,17.44
2022-11-29T07:24:28.840Z,17.43
2022-11-29T07:27:07.018Z,17.43
2022-11-29T07:29:42.986Z,17.42
2022-11-29T07:32:28.087Z,17.43
2022-11-29T07:35:30.795Z,17.42
2022-11-29T07:38:27.207Z,17.42
2022-11-29T07:41:29.963Z,17.41
2022-11-29T07:44:18.440Z,17.40
2022-11-29T07:46:45.777Z,17.41
2022-11-29T07:49:13.090Z,17.40
2022-11-29T07:51:40.394Z,17.40
2022-11-29T07:54:07.717Z,17.40
2022-11-29T07:56:35.057Z,17.41
2022-11-29T07:59:02.754Z,17.40
2022-11-29T08:01:31.305Z,17.40
2022-11-29T08:03:58.536Z,17.40
2022-11-29T08:06:26.566Z,17.40
2022-11-29T08:08:53.814Z,17.42
2022-11-29T08:11:21.138Z,17.42
2022-11-29T08:13:48.466Z,17.42
2022-11-29T08:16:17.684Z,17.41
2022-11-29T08:18:45.033Z,17.41
2022-11-29T08:21:17.907Z,17.42
2022-11-29T08:23:49.464Z,17.43
2022-11-29T08:26:18.400Z,17.43
2022-11-29T08:28:45.783Z,17.44
2022-11-29T08:31:14.010Z,17.45
2022-11-29T08:33:43.212Z,17.45
2022-11-29T08:36:15.521Z,17.46
2022-11-29T08:38:42.896Z,17.46
2022-11-29T08:41:13.129Z,17.48
2022-11-29T08:43:41.124Z,17.47
2022-11-29T08:46:11.471Z,17.47
2022-11-29T08:48:42.643Z,17.47
2022-11-29T08:51:10.025Z,17.47
2022-11-29T08:53:43.575Z,17.48
2022-11-29T08:56:59.656Z,17.49
2022-11-29T08:59:01.224Z,17.49
2022-11-29T09:01:29.633Z,17.50
2022-11-29T09:03:59.827Z,17.51
2022-11-29T09:06:37.682Z,17.50
2022-11-29T09:09:05.876Z,17.50
2022-11-29T09:11:35.325Z,17.51
2022-11-29T09:14:05.913Z,17.50
2022-11-29T09:16:36.222Z,17.51
2022-11-29T09:19:05.294Z,17.51
2022-11-29T09:21:34.873Z,17.52
2022-11-29T09:24:06.335Z,17.52
2022-11-29T09:26:36.155Z,17.52
2022-11-29T09:29:05.777Z,17.52
2022-11-29T09:31:34.549Z,17.52
2022-11-29T09:34:02.401Z,17.54
2022-11-29T09:36:30.738Z,17.54
2022-11-29T09:38:59.125Z,17.53
2022-11-29T09:41:55.579Z,17.54
2022-11-29T09:44:38.136Z,17.54
2022-11-29T09:47:37.837Z,17.53
2022-11-29T09:50:28.171Z,17.54
2022-11-29T09:53:14.481Z,17.54
2022-11-29T09:56:23.715Z,17.55
2022-11-29T09:58:57.148Z,17.54
2022-11-29T10:01:33.141Z,17.54
2022-11-29T10:04:08.963Z,17.54
2022-11-29T10:06:40.978Z,17.54
2022-11-29T10:09:22.034Z,17.55
2022-11-29T10:12:07.712Z,17.54
2022-11-29T10:14:44.550Z,17.55
2022-11-29T10:17:24.803Z,17.54
2022-11-29T10:19:59.642Z,17.55
2022-11-29T10:22:40.963Z,17.54
2022-11-29T10:25:12.258Z,17.56
2022-11-29T10:27:40.657Z,17.54
2022-11-29T10:30:16.371Z,17.55
2022-11-29T10:32:47.414Z,17.55
2022-11-29T10:35:17.342Z,17.55
2022-11-29T10:38:01.447Z,17.53
2022-11-29T10:40:35.032Z,17.54
2022-11-29T10:43:02.872Z,17.54
2022-11-29T10:45:58.846Z,17.52
2022-11-29T10:48:32.061Z,17.52
2022-11-29T10:50:59.786Z,17.52
2022-11-29T10:53:48.625Z,17.47
2022-11-29T10:56:24.240Z,17.38
2022-11-29T10:59:03.378Z,17.34
2022-11-29T11:01:43.044Z,17.34
2022-11-29T11:04:32.677Z,17.35
2022-11-29T11:07:02.406Z,17.37
2022-11-29T11:09:36.354Z,17.39
2022-11-29T11:12:18.989Z,17.40
2022-11-29T11:14:47.576Z,17.41
2022-11-29T11:17:32.893Z,17.43
2022-11-29T11:20:06.262Z,17.45
2022-11-29T11:22:35.209Z,17.45
2022-11-29T11:25:11.172Z,17.46
2022-11-29T11:27:42.319Z,17.48
2022-11-29T11:30:22.750Z,17.48
2022-11-29T11:33:16.816Z,17.47
2022-11-29T11:35:44.184Z,17.48
2022-11-29T11:38:16.678Z,17.48
2022-11-29T11:40:44.688Z,17.49
2022-11-29T11:43:21.993Z,17.50
2022-11-29T11:45:53.985Z,17.51
2022-11-29T11:48:22.110Z,17.51
2022-11-29T11:50:56.784Z,17.51
2022-11-29T11:53:28.329Z,17.51
2022-11-29T11:56:07.868Z,17.52
2022-11-29T11:58:39.495Z,17.52
2022-11-29T12:01:12.504Z,17.52
2022-11-29T12:03:51.758Z,17.52
2022-11-29T12:06:27.485Z,17.53
2022-11-29T12:09:01.779Z,17.53
2022-11-29T12:11:37.441Z,17.55
2022-11-29T12:14:07.046Z,17.54
2022-11-29T12:16:38.071Z,17.55
2022-11-29T12:19:16.817Z,17.55
2022-11-29T12:21:52.415Z,17.55
2022-11-29T12:24:34.777Z,17.57
2022-11-29T12:27:05.349Z,17.56
2022-11-29T12:29:34.603Z,17.58
2022-11-29T12:32:16.737Z,17.58
2022-11-29T12:35:02.494Z,17.58
2022-11-29T12:37:39.974Z,17.60
2022-11-29T12:42:30.226Z,17.62
2022-11-29T12:45:22.670Z,17.62
2022-11-29T12:48:02.385Z,17.62
2022-11-29T12:50:49.675Z,17.62
2022-11-29T12:54:01.440Z,17.62
2022-11-29T12:56:42.585Z,17.63
2022-11-29T12:59:33.840Z,17.63
2022-11-29T13:02:19.601Z,17.63
2022-11-29T13:05:00.094Z,17.62
2022-11-29T13:07:58.189Z,17.62
2022-11-29T13:10:37.435Z,17.62
2022-11-29T13:13:33.261Z,17.62
2022-11-29T13:16:07.313Z,17.61
2022-11-29T13:18:34.754Z,17.61
2022-11-29T13:21:25.926Z,17.61
2022-11-29T13:24:14.486Z,17.62
2022-11-29T13:26:43.225Z,17.62
2022-11-29T13:29:16.568Z,17.64
2022-11-29T13:31:46.497Z,17.65
2022-11-29T13:34:24.612Z,17.65
2022-11-29T13:36:58.093Z,17.66
2022-11-29T13:39:35.249Z,17.66
2022-11-29T13:42:33.295Z,17.66
2022-11-29T13:45:21.590Z,17.68
2022-11-29T13:47:54.625Z,17.67
2022-11-29T13:50:45.138Z,17.69
2022-11-29T13:53:15.268Z,17.69
2022-11-29T13:56:00.276Z,17.70
2022-11-29T13:58:33.291Z,17.70
2022-11-29T14:01:10.546Z,17.70
2022-11-29T14:03:40.705Z,17.70
2022-11-29T14:06:13.226Z,17.71
2022-11-29T14:11:56.535Z,17.72
2022-11-29T14:14:31.458Z,17.73
2022-11-29T14:17:02.037Z,17.74
2022-11-29T14:19:33.423Z,17.75
2022-11-29T14:22:10.094Z,17.74
2022-11-29T14:24:37.781Z,17.75
2022-11-29T14:27:08.412Z,17.77
2022-11-29T14:29:47.924Z,17.77
2022-11-29T14:32:21.413Z,17.78
2022-11-29T14:34:57.446Z,17.78
2022-11-29T14:38:01.965Z,17.78
2022-11-29T14:40:48.737Z,17.78
2022-11-29T14:43:23.324Z,17.80
2022-11-29T14:46:29.224Z,17.81
2022-11-29T14:48:56.748Z,17.81
2022-11-29T14:51:26.696Z,17.81
2022-11-29T14:54:18.438Z,17.81
2022-11-29T14:56:47.387Z,17.81
2022-11-29T14:59:47.116Z,17.82
2022-11-29T15:02:33.497Z,17.83
2022-11-29T15:05:19.229Z,17.82
2022-11-29T15:08:10.464Z,17.83
2022-11-29T15:10:42.406Z,17.83
2022-11-29T15:13:15.459Z,17.83
2022-11-29T15:15:58.114Z,17.85
2022-11-29T15:18:25.536Z,17.86
2022-11-29T15:21:16.695Z,17.85
2022-11-29T15:23:44.293Z,17.86
2022-11-29T15:26:18.561Z,17.86
2022-11-29T15:28:46.076Z,17.85
2022-11-29T15:31:18.735Z,17.86
2022-11-29T15:33:49.034Z,17.86
2022-11-29T15:36:20.053Z,17.87
2022-11-29T15:38:50.988Z,17.87
2022-11-29T15:41:28.749Z,17.88
2022-11-29T15:44:01.972Z,17.87
2022-11-29T15:46:34.985Z,17.89
2022-11-29T15:49:25.522Z,17.88
2022-11-29T15:52:05.670Z,17.89
2022-11-29T15:54:39.596Z,17.90
2022-11-29T15:57:22.698Z,17.89
2022-11-29T15:59:53.976Z,17.90
2022-11-29T16:02:25.570Z,17.89
2022-11-29T16:04:57.051Z,17.91
2022-11-29T16:07:25.985Z,17.91
2022-11-29T16:09:58.138Z,17.91
2022-11-29T16:12:26.548Z,17.91
2022-11-29T16:14:56.596Z,17.91
2022-11-29T16:17:29.912Z,17.93
2022-11-29T16:20:25.239Z,17.92
2022-11-29T16:23:04.671Z,17.92
2022-11-29T16:25:37.426Z,17.93
2022-11-29T16:28:06.094Z,17.93
2022-11-29T16:30:33.431Z,17.93
2022-11-29T16:33:03.541Z,17.92
2022-11-29T16:35:36.171Z,17.93
2022-11-29T16:38:04.800Z,17.94
2022-11-29T16:40:34.769Z,17.93
2022-11-29T16:43:06.512Z,17.94
2022-11-29T16:45:35.469Z,17.94
2022-11-29T16:48:23.605Z,17.95
2022-11-29T16:51:09.752Z,17.95
2022-11-29T16:53:40.060Z,17.96
2022-11-29T16:56:11.958Z,17.95
2022-11-29T16:59:17.188Z,17.95
2022-11-29T17:01:30.481Z,17.95
2022-11-29T17:04:00.185Z,17.96
2022-11-29T17:06:29.541Z,17.97
2022-11-29T17:08:58.820Z,17.98
2022-11-29T17:11:26.268Z,17.98
2022-11-29T17:13:53.791Z,18.00
2022-11-29T17:16:23.484Z,18.01
2022-11-29T17:18:52.820Z,18.02
2022-11-29T17:21:27.942Z,18.03
2022-11-29T17:23:55.221Z,18.06
2022-11-29T17:26:23.585Z,18.06
2022-11-29T17:28:51.874Z,18.07
2022-11-29T17:31:21.634Z,18.09
2022-11-29T17:33:49.681Z,18.10
2022-11-29T17:36:19.819Z,18.10
2022-11-29T17:38:48.302Z,18.10
2022-11-29T17:41:23.782Z,18.11
2022-11-29T17:43:52.533Z,18.12
2022-11-29T17:46:24.274Z,18.12
2022-11-29T17:48:52.348Z,18.11
2022-11-29T17:51:50.460Z,18.13
2022-11-29T17:54:09.374Z,18.14
2022-11-29T17:56:37.000Z,18.14
2022-11-29T17:59:04.923Z,18.16
2022-11-29T18:01:34.781Z,18.17
2022-11-29T18:04:04.700Z,18.18
2022-11-29T18:06:40.281Z,18.18
2022-11-29T18:09:09.371Z,18.19
2022-11-29T18:11:47.037Z,18.19
2022-11-29T18:14:23.237Z,18.20
2022-11-29T18:16:51.309Z,18.22
2022-11-29T18:19:21.536Z,18.21
2022-11-29T18:21:49.723Z,18.22
2022-11-29T18:24:17.273Z,18.23
2022-11-29T18:26:44.928Z,18.23
2022-11-29T18:29:12.251Z,18.23
2022-11-29T18:31:42.736Z,18.24
2022-11-29T18:34:12.981Z,18.24
2022-11-29T18:36:46.165Z,18.25
2022-11-29T18:39:14.538Z,18.25
2022-11-29T18:41:44.541Z,18.25
2022-11-29T18:44:14.042Z,18.26
2022-11-29T18:46:43.596Z,18.27
2022-11-29T18:49:13.195Z,18.27
2022-11-29T18:51:42.980Z,18.28
2022-11-29T18:54:10.663Z,18.28
2022-11-29T18:56:38.311Z,18.29
2022-11-29T18:59:10.304Z,18.31
2022-11-29T19:01:43.163Z,18.31
2022-11-29T19:04:16.648Z,18.32
2022-11-29T19:06:44.180Z,18.33
2022-11-29T19:09:17.142Z,18.35
2022-11-29T19:11:44.342Z,18.34
2022-11-29T19:14:12.689Z,18.36
2022-11-29T19:16:44.171Z,18.37
2022-11-29T19:19:11.957Z,18.39
2022-11-29T19:21:40.136Z,18.40
2022-11-29T19:24:13.868Z,18.40
2022-11-29T19:26:46.334Z,18.42
2022-11-29T19:29:15.005Z,18.42
2022-11-29T19:31:42.930Z,18.44
2022-11-29T19:34:10.398Z,18.46
2022-11-29T19:36:43.110Z,18.46
2022-11-29T19:39:15.897Z,18.47
2022-11-29T19:41:46.111Z,18.48
2022-11-29T19:44:14.008Z,18.48
2022-11-29T19:46:44.450Z,18.49
2022-11-29T19:49:12.531Z,18.49
2022-11-29T19:51:40.204Z,18.50
2022-11-29T19:54:09.226Z,18.49
2022-11-29T19:56:36.758Z,18.49
2022-11-29T19:59:05.482Z,18.50
2022-11-29T20:01:40.302Z,18.51
2022-11-29T20:04:09.617Z,18.52
2022-11-29T20:06:37.061Z,18.53
2022-11-29T20:09:04.813Z,18.52
2022-11-29T20:11:32.314Z,18.53
2022-11-29T20:14:01.641Z,18.54
2022-11-29T20:16:30.683Z,18.55
2022-11-29T20:18:58.766Z,18.57
2022-11-29T20:21:32.096Z,18.56
2022-11-29T20:24:05.122Z,18.58
2022-11-29T20:26:35.313Z,18.58
2022-11-29T20:29:04.543Z,18.58
2022-11-29T20:31:33.443Z,18.58
2022-11-29T20:34:01.410Z,18.59
2022-11-29T20:36:37.922Z,18.60
2022-11-29T20:39:29.130Z,18.61
2022-11-29T20:42:22.774Z,18.61
2022-11-29T20:44:54.437Z,18.62
2022-11-29T20:47:25.054Z,18.62
2022-11-29T20:49:54.040Z,18.61
2022-11-29T20:52:41.702Z,18.63
2022-11-29T20:55:09.268Z,18.65
2022-11-29T20:57:40.120Z,18.66
2022-11-29T21:00:11.383Z,18.66
2022-11-29T21:02:39.122Z,18.66
2022-11-29T21:05:07.045Z,18.67
2022-11-29T21:07:34.719Z,18.67
2022-11-29T21:10:02.209Z,18.68
2022-11-29T21:12:30.342Z,18.69
2022-11-29T21:14:58.321Z,18.69
2022-11-29T21:17:32.991Z,18.70
2022-11-29T21:20:01.293Z,18.70
2022-11-29T21:22:46.986Z,18.73
2022-11-29T21:25:25.491Z,18.74
2022-11-29T21:27:54.911Z,18.74
2022-11-29T21:30:25.031Z,18.74
2022-11-29T21:32:52.808Z,18.74
2022-11-29T21:35:20.177Z,18.75
2022-11-29T21:37:47.431Z,18.75
2022-11-29T21:40:15.349Z,18.77
2022-11-29T21:42:42.592Z,18.77
2022-11-29T21:45:15.376Z,18.78
2022-11-29T21:47:44.213Z,18.78
2022-11-29T21:50:12.962Z,18.79
2022-11-29T21:52:40.451Z,18.78
2022-11-29T21:55:08.219Z,18.78
2022-11-29T21:57:35.797Z,18.81
2022-11-29T22:00:04.357Z,18.81
2022-11-29T22:02:31.710Z,18.81
2022-11-29T22:04:59.130Z,18.82
2022-11-29T22:07:26.693Z,18.82
2022-11-29T22:09:54.082Z,18.82
2022-11-29T22:12:34.215Z,18.83
2022-11-29T22:15:02.208Z,18.83
2022-11-29T22:17:29.583Z,18.83
2022-11-29T22:19:56.910Z,18.84
2022-11-29T22:22:27.184Z,18.85
2022-11-29T22:24:55.345Z,18.86
2022-11-29T22:27:22.543Z,18.86
2022-11-29T22:29:49.837Z,18.87
2022-11-29T22:32:17.468Z,18.89
2022-11-29T22:34:45.127Z,18.91
2022-11-29T22:37:12.640Z,18.90
2022-11-29T22:39:39.947Z,18.91
2022-11-29T22:42:07.684Z,18.90
2022-11-29T22:44:35.031Z,18.90
2022-11-29T22:47:02.499Z,18.90
2022-11-29T22:49:30.045Z,18.90
2022-11-29T22:51:57.305Z,18.89
2022-11-29T22:54:24.663Z,18.90
2022-11-29T22:56:53.386Z,18.89
2022-11-29T22:59:20.654Z,18.89
2022-11-29T23:01:47.996Z,18.90
2022-11-29T23:04:15.801Z,18.88
2022-11-29T23:06:44.851Z,18.91
2022-11-29T23:09:16.133Z,18.89
2022-11-29T23:11:45.907Z,18.88
2022-11-29T23:14:13.882Z,18.88
2022-11-29T23:16:41.429Z,18.88
2022-11-29T23:19:08.975Z,18.87
2022-11-29T23:21:38.344Z,18.88
2022-11-29T23:24:06.108Z,18.87
2022-11-29T23:26:37.544Z,18.87
2022-11-29T23:29:12.996Z,18.87
2022-11-29T23:31:41.029Z,18.86
2022-11-29T23:34:08.806Z,18.87
2022-11-29T23:36:36.409Z,18.86
2022-11-29T23:39:05.750Z,18.87
2022-11-29T23:41:34.314Z,18.86
2022-11-29T23:44:03.867Z,18.86
2022-11-29T23:46:31.177Z,18.85
2022-11-29T23:48:58.517Z,18.85
2022-11-29T23:51:25.864Z,18.84
2022-11-29T23:53:54.148Z,18.84
2022-11-29T23:56:22.304Z,18.83
2022-11-29T23:58:49.818Z,18.82
